MSC Flavia — 3FBD7 — position and weather

sailwx.info

Track history (hours):
 
Tides and Currents Weather Stations Pressure Air Temp Water Temp Dewpoint Dewpoint Depression Visibility Wind Speed Wind Dir Waves Ship Positions

MSC Flavia

Last reported at 2017-Jun-23 21:59 UTC. Time now 2017-Jun-25 02:03 UTC.
Position N 24°46' W 114°17'.

Length 366 m; draft 14.4 m.

Type: Ship (hazmat cat A). MMSI: 373004000.

Date/timePositionNaut miles runAvg speedWind from/ knotsBaromVisibWave heightAir tempDewpointWater temp
2017-Jun-23 21:59N 24°46' W 114°17'36317.7
2017-Jun-23 01:30N 28°29' W 119°38'1217.9
2017-Jun-23 00:51N 28°36' W 119°48'617.8
2017-Jun-23 00:30N 28°40' W 119°54'1018.0
2017-Jun-22 23:56N 28°46' W 120°03'1217.9
2017-Jun-22 23:14N 28°54' W 120°14'717.9
2017-Jun-22 22:51N 28°59' W 120°20'617.7
2017-Jun-22 22:30N 29°03' W 120°25'917.9
2017-Jun-22 22:00N 29°09' W 120°33'1017.7
2017-Jun-22 21:27N 29°15' W 120°42'817.8
2017-Jun-22 21:00N 29°20' W 120°49'917.6
2017-Jun-22 20:30N 29°26' W 120°56'917.8
2017-Jun-22 20:00N 29°31' W 121°05'917.9
2017-Jun-22 19:30N 29°37' W 121°12'917.5
2017-Jun-22 18:59N 29°43' W 121°21'817.6
2017-Jun-22 18:30N 29°48' W 121°28'917.4
2017-Jun-22 18:00N 29°53' W 121°36'1517.7
2017-Jun-22 17:09N 30°03' W 121°50'2117.7
2017-Jun-22 15:56N 30°16' W 122°09'817.8
2017-Jun-22 15:28N 30°21' W 122°16'917.8
2017-Jun-22 14:59N 30°27' W 122°24'1717.5
2017-Jun-22 14:01N 30°38' W 122°40'917.8
2017-Jun-22 13:30N 30°43' W 122°48'917.9
2017-Jun-22 13:00N 30°49' W 122°56'917.6
2017-Jun-22 12:30N 30°54' W 123°04'917.8
2017-Jun-22 12:00N 30°60' W 123°12'917.8
2017-Jun-22 11:30N 31°05' W 123°20'917.7
2017-Jun-22 11:00N 31°11' W 123°28'917.9
2017-Jun-22 10:30N 31°16' W 123°37'1017.9
2017-Jun-22 09:57N 31°22' W 123°46'1718.0
2017-Jun-22 09:02N 31°33' W 124°01'117.6
2017-Jun-22 08:57N 31°33' W 124°03'16517.7
2017-Jun-21 23:39N 33°12' W 126°38'317.6
2017-Jun-21 23:28N 33°14' W 126°41'2317.7
2017-Jun-21 22:09N 33°28' W 127°04'10317.7
2017-Jun-21 16:19N 34°28' W 128°45'617.8
2017-Jun-21 16:00N 34°31' W 128°51'918.0
2017-Jun-21 15:30N 34°37' W 128°60'4517.9
2017-Jun-21 12:58N 35°03' W 129°45'  
Track history (hours):
 
Tides and Currents Weather Stations Pressure Air Temp Water Temp Dewpoint Dewpoint Depression Visibility Wind Speed Wind Dir Waves Ship Positions

MSC Flavia

Last reported at 2017-Jun-23 21:59 UTC. Time now 2017-Jun-25 02:03 UTC.
Position N 24°46' W 114°17'.

Length 366 m; draft 14.4 m.

Type: Ship (hazmat cat A). MMSI: 373004000.

Date/timePositionNaut miles runAvg speedWind from/ knotsBaromVisibWave heightAir tempDewpointWater temp
2017-Jun-23 21:59N 24°46' W 114°17'36317.7
2017-Jun-23 01:30N 28°29' W 119°38'1217.9
2017-Jun-23 00:51N 28°36' W 119°48'617.8
2017-Jun-23 00:30N 28°40' W 119°54'1018.0
2017-Jun-22 23:56N 28°46' W 120°03'1217.9
2017-Jun-22 23:14N 28°54' W 120°14'717.9
2017-Jun-22 22:51N 28°59' W 120°20'617.7
2017-Jun-22 22:30N 29°03' W 120°25'917.9
2017-Jun-22 22:00N 29°09' W 120°33'1017.7
2017-Jun-22 21:27N 29°15' W 120°42'817.8
2017-Jun-22 21:00N 29°20' W 120°49'917.6
2017-Jun-22 20:30N 29°26' W 120°56'917.8
2017-Jun-22 20:00N 29°31' W 121°05'917.9
2017-Jun-22 19:30N 29°37' W 121°12'917.5
2017-Jun-22 18:59N 29°43' W 121°21'817.6
2017-Jun-22 18:30N 29°48' W 121°28'917.4
2017-Jun-22 18:00N 29°53' W 121°36'1517.7
2017-Jun-22 17:09N 30°03' W 121°50'2117.7
2017-Jun-22 15:56N 30°16' W 122°09'817.8
2017-Jun-22 15:28N 30°21' W 122°16'917.8
2017-Jun-22 14:59N 30°27' W 122°24'1717.5
2017-Jun-22 14:01N 30°38' W 122°40'917.8
2017-Jun-22 13:30N 30°43' W 122°48'917.9
2017-Jun-22 13:00N 30°49' W 122°56'917.6
2017-Jun-22 12:30N 30°54' W 123°04'917.8
2017-Jun-22 12:00N 30°60' W 123°12'917.8
2017-Jun-22 11:30N 31°05' W 123°20'917.7
2017-Jun-22 11:00N 31°11' W 123°28'917.9
2017-Jun-22 10:30N 31°16' W 123°37'1017.9
2017-Jun-22 09:57N 31°22' W 123°46'1718.0
2017-Jun-22 09:02N 31°33' W 124°01'117.6
2017-Jun-22 08:57N 31°33' W 124°03'16517.7
2017-Jun-21 23:39N 33°12' W 126°38'317.6
2017-Jun-21 23:28N 33°14' W 126°41'2317.7
2017-Jun-21 22:09N 33°28' W 127°04'10317.7
2017-Jun-21 16:19N 34°28' W 128°45'617.8
2017-Jun-21 16:00N 34°31' W 128°51'918.0
2017-Jun-21 15:30N 34°37' W 128°60'4517.9
2017-Jun-21 12:58N 35°03' W 129°45'  

Dump ship's entire track history